LDPL/PUY METAR and TAF weather

Enter ICAO airport designator
Station Type Date Time Source
LDPL METAR 2019/10/15 08:30 UTC NOAA

LDPL 150830Z 12007KT 090V160 9999 FEW007 BKN013 18/17 Q1017 NOSIG


Station Type Date Time Source
LDPL Decoded METAR 2019/10/15 08:30 UTC NOAA

Pula Aerodrome, Croatia (LDPL) 45-54N 013-55E 63M
Oct 15, 2019 - 04:30 AM EDT / 2019.10.15 0830 UTC
Wind: from the ESE (120 degrees) at 8 MPH (7 KT) (direction variable):0
Visibility: greater than 7 mile(s):0
Sky conditions: mostly cloudy
Temperature: 64 F (18 C)
Dew Point: 62 F (17 C)
Relative Humidity: 93%
Pressure (altimeter): 30.03 in. Hg (1017 hPa)
ob: LDPL 150830Z 12007KT 090V160 9999 FEW007 BKN013 18/17 Q1017 NOSIG
cycle: 8

Station Type Date Time Source
LDPL TAF 2019/10/15 06:30 UTC NOAA

TAF LDPL 150525Z 1506/1606 11008KT CAVOK TX21/1512Z TN15/1601Z PROB40
TEMPO 1506/1520 3000 BR BKN010 PROB30
TEMPO 1520/1601 SHRA FEW040TCU PROB30
TEMPO 1601/1604 TSRA FEW030CB BKN040
BECMG 1602/1604 25008KT

Example: see airport list